Share

Abisko, Sweden

Bjørnfjell 520moh (INORDLAN37) Elev 1903 ft | 68.44 °N, 18.07 °E | Change Station

Current weather conditions updated 2 minutes ago

Mostly Cloudy
Mostly Cloudy
32.4 °F
Feels Like 25 °F
N
9.0
Wind Variable Wind from WNW
Gusts 10.0 mph
Sunrise 4:43 AM
Sunset 8:47 PM
Moon Waning Gibbous

Today is forecast to be Cooler than yesterday. Cloudy, some light snow.

Pressure 29.42 in
Visibility 6.2 miles
Clouds Few 1500 ft
Scattered Clouds 4000 ft
Mostly Cloudy 9000 ft
Windchill 25 °F
Dew Point 31 °F
Humidity 93%
Rainfall 0.05 in
Snow Depth Not available.
UV 2 out of 16
Pollen Not available.
Air Quality Not available.
Flu Activity Not available.
METAR ENNK 171150Z 25015KT 9999 FEW015 SCT040 BKN090 04/01 Q0996

More Conditions Fewer Conditions

Pressure 29.42 in
Visibility 6.2 miles
Clouds Few 1500 ft
Scattered Clouds 4000 ft
Mostly Cloudy 9000 ft
Windchill 25 °F
Dew Point 31 °F
Humidity 93%
Rainfall 0.05 in
Snow Depth Not available.
UV 2 out of 16
Pollen Not available.
Air Quality Not available.
Flu Activity Not available.
METAR ENNK 171150Z 25015KT 9999 FEW015 SCT040 BKN090 04/01 Q0996

More Conditions Fewer Conditions

10-Day Forecast

Almanac

Astronomy

Apr. 17, 2014 Rise Set
Actual Time 4:43 AM CEST 8:47 PM CEST
Civil Twilight 3:29 AM CEST 10:03 PM CEST
Nautical Twilight 1:16 AM CEST 12:11 AM CEST
Astronomical Twilight Sun does not rise Sun does not rise
Moon No Moon Rise 5:09 AM CEST
Length of Visible Light 18h 33m
Length of Day
16h 04m
Tomorrow will be 8m 33s longer.
Waning Gibbous, 94% of the Moon is Illuminated
Today
Waning Gibbous
Apr 22
Last Quarter
Apr 29
New
May 6
First Quarter
May 14
Full

Yesterday's Extremes

Country Highs Country Lows

Community

  • sunset from izmir, narlıdere
    sunset from izmir, narlıdere
  • Sunset over the Bay
    Sunset over the Bay
  • Sunrise Serenade
    Sunrise Serenade
  • symphony in blue....
    symphony in blue....
  • Dawn Surprise
    Dawn Surprise

WunderPhotos

Upload Photos

1,701,929 photos uploaded!

Nearby

Snow Depth

Not available.

Coastal Water Temperatures

Place Temperature
No Stations Reporting

Earthquake Activity

City Distance Mag. Time & Date
No recent earthquake activity has been reported nearby.
Minimum magnitude displayed is 2.5.

Nearby Weather Stations

Station Location Temp. Windchill Dew Point Humidity Wind Precip. Elev Updated Type
Bjørnfjell 520moh, Riksgrensen 32.4 °F 25 °F 31 °F 93% WNW  at  9.0 mph 0.00 in / hr 1903 ft 2:15 PM CEST Normal
STF Abisko, Abisko 30.2 °F 26 °F 29 °F 95% SSE  at  4.0 mph - / hr 2740 ft 2:17 PM CEST Normal
Bardu, Bardu 40.1 °F 35 °F 28 °F 62% SW  at  8.0 mph 0.00 in / hr 1608 ft 2:14 PM CEST Normal

Show More Stations Show Fewer Stations

What do you think?

We're not finished. Please let us know what you like, what you don't like, and what you are still missing.